Time;durP1;ratioP1;P1;durP2;ratioP2;P2;SDS_P1;SDS_P2;PMS_P1;PMS_P2;Temp;Humidity;BMP_temperature;BMP_pressure;BME280_temperature;BME280_humidity;BME280_pressure;Samples;Min_cycle;Max_cycle;Signal;HPM_P1;HPM_P2
2022/06/05 00:00:21;;;;;;;14.35;11.95;;;;;;;17.88;100.00;98568.87;1690749;83;28149;-87
2022/06/05 00:03:01;;;;;;;14.38;12.13;;;;;;;17.97;100.00;98565.32;1698005;83;28148;-87
2022/06/05 00:05:54;;;;;;;19.35;14.78;;;;;;;18.00;100.00;98566.85;1695566;83;28097;-84
2022/06/05 00:08:33;;;;;;;14.98;12.78;;;;;;;17.88;100.00;98568.05;1692577;83;28129;-84
2022/06/05 00:11:05;;;;;;;20.80;14.20;;;;;;;17.82;100.00;98574.77;1692823;83;28093;-83
2022/06/05 00:13:33;;;;;;;16.37;13.93;;;;;;;17.85;100.00;98570.48;1695506;82;28056;-83
2022/06/05 00:15:59;;;;;;;19.67;13.88;;;;;;;17.87;100.00;98569.86;1707859;83;28091;-83
2022/06/05 00:18:26;;;;;;;18.65;14.43;;;;;;;17.91;100.00;98566.41;1694580;83;28123;-83
2022/06/05 00:20:53;;;;;;;17.90;13.72;;;;;;;17.85;100.00;98565.67;1705391;83;28084;-84
2022/06/05 00:23:19;;;;;;;16.90;13.68;;;;;;;17.83;100.00;98576.44;1717286;81;28180;-88
2022/06/05 00:26:01;;;;;;;16.52;13.55;;;;;;;17.81;100.00;98572.27;1682598;83;28158;-85
2022/06/05 00:28:35;;;;;;;;;;;;;;;17.78;100.00;98575.22;1690135;83;28170;-88
2022/06/05 00:31:05;;;;;;;16.17;13.83;;;;;;;17.76;100.00;98574.52;1689316;83;24606;-88
2022/06/05 00:33:35;;;;;;;12.53;10.82;;;;;;;17.75;100.00;98571.04;1689718;83;28143;-84
2022/06/05 00:36:18;;;;;;;16.25;12.60;;;;;;;17.74;100.00;98572.02;1693490;83;28075;-88
2022/06/05 00:39:12;;;;;;;21.52;14.73;;;;;;;17.70;100.00;98571.14;1650458;85;28054;-85
2022/06/05 00:41:51;;;;;;;20.60;16.25;;;;;;;17.67;100.00;98570.13;1655924;84;28187;-85
2022/06/05 00:44:24;;;;;;;20.12;15.83;;;;;;;17.70;100.00;98568.01;1652293;84;28089;-86
2022/06/05 00:46:52;;;;;;;22.77;17.45;;;;;;;17.72;100.00;98567.87;1654933;85;28095;-88
2022/06/05 00:49:21;;;;;;;20.97;15.88;;;;;;;17.72;100.00;98577.97;1693804;83;28077;-84
2022/06/05 00:51:48;;;;;;;19.23;15.05;;;;;;;17.71;100.00;98584.23;1681495;83;28089;-83
2022/06/05 00:54:14;;;;;;;23.77;17.87;;;;;;;17.73;100.00;98580.12;1679778;83;28121;-84
2022/06/05 00:56:42;;;;;;;22.30;17.60;;;;;;;17.77;100.00;98575.70;1678676;83;28133;-82
2022/06/05 00:59:12;;;;;;;17.50;14.68;;;;;;;17.78;100.00;98579.19;1682358;83;28084;-85
2022/06/05 01:01:40;;;;;;;19.73;16.93;;;;;;;17.74;100.00;98577.31;1677654;83;28102;-83
2022/06/05 01:04:07;;;;;;;19.92;15.70;;;;;;;17.79;100.00;98579.50;1686978;83;28167;-87
2022/06/05 01:06:34;;;;;;;20.35;16.37;;;;;;;17.85;100.00;98581.56;1717539;81;28093;-88
2022/06/05 01:09:00;;;;;;;22.37;16.57;;;;;;;17.86;100.00;98577.45;1684912;83;28063;-86
2022/06/05 01:11:33;;;;;;;19.62;15.32;;;;;;;17.89;100.00;98577.14;1643690;85;28606;-88
2022/06/05 01:14:15;;;;;;;21.45;16.55;;;;;;;17.91;100.00;98577.00;1645306;85;28074;-84
2022/06/05 01:17:07;;;;;;;16.32;14.30;;;;;;;17.92;100.00;98580.83;1681516;83;28008;-84
2022/06/05 01:19:43;;;;;;;18.40;16.40;;;;;;;17.94;100.00;98567.45;1681424;83;28087;-87
2022/06/05 01:22:42;;;;;;;18.90;16.00;;;;;;;17.94;100.00;98566.96;1634702;86;28144;-84
2022/06/05 01:25:30;;;;;;;19.20;16.25;;;;;;;17.93;100.00;98569.75;1635276;86;28116;-83
2022/06/05 01:28:00;;;;;;;20.43;16.20;;;;;;;17.90;100.00;98574.00;1630639;85;28105;-84
2022/06/05 01:30:30;;;;;;;18.45;14.83;;;;;;;17.84;100.00;98583.37;1638673;85;28103;-85
2022/06/05 01:33:12;;;;;;;17.57;12.85;;;;;;;17.76;100.00;98581.14;1668862;83;28158;-85
2022/06/05 01:35:45;;;;;;;17.60;13.70;;;;;;;17.69;100.00;98577.41;1671669;83;28091;-84
2022/06/05 01:38:15;;;;;;;17.90;13.50;;;;;;;17.64;100.00;98576.54;1667852;83;28001;-84
2022/06/05 01:40:45;;;;;;;20.60;15.18;;;;;;;17.58;100.00;98577.09;1676062;83;28076;-84
2022/06/05 01:43:15;;;;;;;17.90;14.33;;;;;;;17.52;100.00;98578.52;1680110;83;28016;-84
2022/06/05 01:45:51;;;;;;;18.05;14.87;;;;;;;17.51;100.00;98581.33;1672723;84;28048;-86
2022/06/05 01:48:24;;;;;;;19.45;14.68;;;;;;;17.48;100.00;98583.77;1685146;83;28057;-83
2022/06/05 01:50:54;;;;;;;17.80;14.68;;;;;;;17.44;100.00;98582.40;1671836;83;28225;-86
2022/06/05 01:53:27;;;;;;;17.42;14.03;;;;;;;17.40;100.00;98578.88;1677101;83;28079;-84
2022/06/05 01:56:00;;;;;;;15.98;14.28;;;;;;;17.38;100.00;98577.69;1680472;83;28074;-85
2022/06/05 01:58:33;;;;;;;14.05;12.37;;;;;;;17.28;100.00;98581.36;1676758;83;28164;-84
2022/06/05 02:01:03;;;;;;;15.15;13.32;;;;;;;17.23;100.00;98569.90;1676621;83;28097;-87
2022/06/05 02:03:40;;;;;;;14.90;13.28;;;;;;;17.25;100.00;98570.56;1673618;83;28173;-83
2022/06/05 02:06:09;;;;;;;13.78;12.35;;;;;;;17.31;100.00;98573.95;1672293;83;28205;-85
2022/06/05 02:08:56;;;;;;;14.73;13.22;;;;;;;17.33;100.00;98571.17;1673976;83;28158;-85
2022/06/05 02:11:25;;;;;;;15.78;13.38;;;;;;;17.34;100.00;98564.42;1670143;83;28091;-83
2022/06/05 02:13:58;;;;;;;14.05;12.55;;;;;;;17.34;100.00;98560.94;1634415;85;28107;-87
2022/06/05 02:16:26;;;;;;;14.05;12.30;;;;;;;17.36;100.00;98562.93;1626220;85;28009;-85
2022/06/05 02:18:53;;;;;;;15.35;13.08;;;;;;;17.35;100.00;98559.45;1665911;83;28071;-87
2022/06/05 02:21:20;;;;;;;14.45;12.98;;;;;;;17.34;100.00;98551.19;1679495;83;28041;-83
2022/06/05 02:23:46;;;;;;;13.03;11.73;;;;;;;17.35;100.00;98549.35;1663260;84;28160;-87
2022/06/05 02:26:13;;;;;;;12.30;10.95;;;;;;;17.33;100.00;98560.59;1689505;83;28058;-87
2022/06/05 02:28:40;;;;;;;14.25;12.73;;;;;;;17.28;100.00;98555.74;1689309;83;28154;-83
2022/06/05 02:31:13;;;;;;;14.73;12.50;;;;;;;17.34;100.00;98562.27;1690681;83;28166;-87
2022/06/05 02:33:45;;;;;;;13.90;11.28;;;;;;;17.33;100.00;98558.78;1659966;85;28080;-87
2022/06/05 02:36:25;;;;;;;14.10;11.63;;;;;;;17.23;100.00;98558.48;1688614;83;28026;-85
2022/06/05 02:39:20;;;;;;;14.18;12.03;;;;;;;17.02;100.00;98567.44;1682881;83;28161;-83
2022/06/05 02:42:04;;;;;;;16.20;12.88;;;;;;;16.80;100.00;98569.11;1683666;83;28090;-83
2022/06/05 02:44:35;;;;;;;14.63;12.28;;;;;;;16.63;100.00;98564.58;1689330;83;28158;-84
2022/06/05 02:47:31;;;;;;;13.10;11.70;;;;;;;16.60;100.00;98571.45;1689749;83;28118;-85
2022/06/05 02:50:21;;;;;;;14.80;12.15;;;;;;;16.61;100.00;98567.84;1678871;83;28115;-85
2022/06/05 02:52:51;;;;;;;14.90;11.80;;;;;;;16.55;100.00;98565.23;1680566;83;28088;-87
2022/06/05 02:55:21;;;;;;;16.30;13.40;;;;;;;16.44;100.00;98572.48;1688406;83;28196;-86
2022/06/05 02:57:49;;;;;;;15.95;12.88;;;;;;;16.35;100.00;98568.88;1656274;84;28113;-86
2022/06/05 03:00:30;;;;;;;16.87;13.30;;;;;;;16.29;100.00;98574.72;1683098;83;28199;-88
2022/06/05 03:05:40;;;;;;;14.45;12.80;;;;;;;16.25;100.00;98577.30;1690617;83;28064;-83
2022/06/05 03:08:08;;;;;;;15.15;12.73;;;;;;;16.23;100.00;98581.39;1689044;83;28106;-86
2022/06/05 03:10:35;;;;;;;15.25;12.55;;;;;;;16.24;100.00;98578.27;1691350;83;28111;-88
2022/06/05 03:13:01;;;;;;;15.68;12.20;;;;;;;16.24;100.00;98587.03;1682712;83;28079;-86
2022/06/05 03:15:29;;;;;;;18.00;12.85;;;;;;;16.22;100.00;98588.96;1689635;83;28079;-88
2022/06/05 03:17:56;;;;;;;15.83;13.22;;;;;;;16.18;100.00;98588.90;1685800;83;28194;-83
2022/06/05 03:20:22;;;;;;;15.98;13.20;;;;;;;16.16;100.00;98586.88;1689032;83;28093;-85
2022/06/05 03:22:48;;;;;;;16.87;14.25;;;;;;;16.16;100.00;98590.83;1656979;83;28090;-84
2022/06/05 03:25:21;;;;;;;15.43;12.53;;;;;;;16.16;100.00;98597.44;1690368;83;28011;-84
2022/06/05 03:27:48;;;;;;;15.83;13.25;;;;;;;16.27;100.00;98598.63;1686740;83;28085;-86
2022/06/05 03:30:15;;;;;;;15.55;12.88;;;;;;;16.44;100.00;98605.50;1654734;85;28137;-86
2022/06/05 03:32:43;;;;;;;14.65;12.63;;;;;;;16.55;100.00;98601.39;1689951;83;28199;-84
2022/06/05 03:35:11;;;;;;;13.25;11.75;;;;;;;16.63;100.00;98605.53;1689028;83;28106;-88
2022/06/05 03:37:37;;;;;;;13.28;11.53;;;;;;;16.67;100.00;98604.27;1687561;83;28169;-88
2022/06/05 03:40:11;;;;;;;14.90;12.07;;;;;;;16.66;100.00;98597.31;1690289;83;28155;-88
2022/06/05 03:42:37;;;;;;;13.83;11.73;;;;;;;16.58;100.00;98599.81;1689604;82;28080;-86
2022/06/05 03:45:05;;;;;;;13.45;11.15;;;;;;;16.53;100.00;98602.84;1658477;83;28170;-85
2022/06/05 03:47:31;;;;;;;15.10;11.63;;;;;;;16.54;100.00;98598.40;1688525;83;28162;-85
2022/06/05 03:50:00;;;;;;;14.85;12.18;;;;;;;16.60;100.00;98601.84;1643838;85;28070;-85
2022/06/05 03:52:25;;;;;;;13.18;11.80;;;;;;;16.71;100.00;98601.69;1690321;83;28078;-85
2022/06/05 03:54:52;;;;;;;12.73;11.35;;;;;;;16.69;100.00;98603.66;1692603;83;28080;-88
2022/06/05 03:57:24;;;;;;;12.45;11.15;;;;;;;16.75;100.00;98604.38;1686079;83;28090;-85
2022/06/05 03:59:52;;;;;;;13.50;10.85;;;;;;;16.83;100.00;98601.88;1684144;83;28117;-85
2022/06/05 04:02:25;;;;;;;12.20;10.28;;;;;;;16.83;100.00;98605.84;1687985;83;28137;-83
2022/06/05 04:04:50;;;;;;;11.27;9.97;;;;;;;16.82;100.00;98613.91;1692036;83;28182;-86
2022/06/05 04:07:16;;;;;;;10.58;9.45;;;;;;;16.88;100.00;98610.22;1690678;83;28501;-85
2022/06/05 04:09:45;;;;;;;11.15;9.95;;;;;;;16.89;100.00;98608.41;1687144;83;27998;-86
2022/06/05 04:12:13;;;;;;;10.93;9.67;;;;;;;17.31;100.00;98612.80;1684051;83;28068;-85
2022/06/05 04:14:41;;;;;;;10.30;8.73;;;;;;;17.31;100.00;98612.80;1684509;82;40415;-85
2022/06/05 04:17:09;;;;;;;10.58;9.35;;;;;;;17.36;100.00;98610.55;1682590;83;28077;-84
2022/06/05 04:19:36;;;;;;;10.43;9.15;;;;;;;17.43;100.00;98607.67;1686278;83;28184;-85
2022/06/05 04:22:02;;;;;;;10.05;8.30;;;;;;;17.44;100.00;98594.30;1702582;81;28238;-85
2022/06/05 04:24:28;;;;;;;12.63;9.03;;;;;;;17.46;100.00;98591.49;1720922;81;28069;-85
2022/06/05 04:26:55;;;;;;;11.57;9.55;;;;;;;17.38;100.00;98599.34;1720929;82;28032;-84
2022/06/05 04:29:21;;;;;;;12.28;9.95;;;;;;;17.28;100.00;98593.27;1718106;81;28217;-85
2022/06/05 04:31:49;;;;;;;14.43;10.80;;;;;;;17.25;100.00;98597.50;1718852;81;28092;-84
2022/06/05 04:34:21;;;;;;;11.97;9.60;;;;;;;17.18;100.00;98599.08;1717024;82;28076;-88
2022/06/05 04:36:50;;;;;;;9.63;7.72;;;;;;;17.09;100.00;98605.56;1719208;81;28127;-85
2022/06/05 04:39:22;;;;;;;12.70;9.80;;;;;;;17.05;100.00;98603.36;1721391;81;28176;-84
2022/06/05 04:41:49;;;;;;;14.13;10.85;;;;;;;16.99;100.00;98602.12;1718268;82;28139;-88
2022/06/05 04:44:17;;;;;;;12.80;9.58;;;;;;;16.96;100.00;98603.73;1718188;81;28094;-84
2022/06/05 04:46:47;;;;;;;13.68;10.63;;;;;;;16.98;100.00;98610.19;1721366;82;28034;-88
2022/06/05 04:49:14;;;;;;;12.88;10.30;;;;;;;16.94;100.00;98613.61;1719311;82;28059;-88
2022/06/05 04:51:42;;;;;;;13.78;10.40;;;;;;;17.02;100.00;98622.16;1719915;81;28072;-84
2022/06/05 04:54:12;;;;;;;14.33;10.72;;;;;;;17.02;100.00;98616.36;1718470;81;28127;-83
2022/06/05 04:56:38;;;;;;;14.00;10.03;;;;;;;17.03;100.00;98618.52;1720864;81;28163;-87
2022/06/05 04:59:12;;;;;;;16.00;11.45;;;;;;;17.12;100.00;98617.68;1720857;81;28084;-88
2022/06/05 05:01:39;;;;;;;11.60;9.05;;;;;;;17.28;100.00;98619.23;1718527;81;28189;-88
2022/06/05 05:04:09;;;;;;;18.67;12.23;;;;;;;17.40;100.00;98625.17;1718698;81;28043;-88
2022/06/05 05:06:40;;;;;;;17.77;13.00;;;;;;;17.44;100.00;98624.73;1719882;81;28075;-85
2022/06/05 05:09:06;;;;;;;18.87;12.45;;;;;;;17.44;100.00;98621.25;1722445;81;28169;-86
2022/06/05 05:11:34;;;;;;;19.07;13.13;;;;;;;17.48;100.00;98629.23;1718863;81;28134;-85
2022/06/05 05:14:01;;;;;;;23.42;14.93;;;;;;;17.46;100.00;98638.63;1722053;81;28246;-84
2022/06/05 05:16:29;;;;;;;21.50;14.28;;;;;;;17.42;100.00;98640.40;1720441;81;28107;-84
2022/06/05 05:18:56;;;;;;;19.77;14.23;;;;;;;17.26;100.00;98637.05;1717378;81;28113;-86
2022/06/05 05:21:24;;;;;;;21.97;15.15;;;;;;;17.22;100.00;98639.64;1718970;82;28237;-84
2022/06/05 05:23:52;;;;;;;26.80;16.75;;;;;;;17.19;100.00;98639.08;1719065;81;28121;-85
2022/06/05 05:26:30;;;;;;;27.42;17.85;;;;;;;17.18;100.00;98629.01;1721008;81;28174;-86
2022/06/05 05:28:58;;;;;;;30.85;18.48;;;;;;;17.27;100.00;98629.45;1719337;81;28172;-89
2022/06/05 05:31:30;;;;;;;31.40;20.50;;;;;;;17.30;100.00;98631.80;1718975;81;28173;-88
2022/06/05 05:33:57;;;;;;;33.58;22.80;;;;;;;17.45;100.00;98629.55;1718881;81;28236;-86
2022/06/05 05:36:24;;;;;;;33.45;21.73;;;;;;;17.58;100.00;98633.99;1719246;81;28076;-87
2022/06/05 05:44:35;;;;;;;38.65;24.43;;;;;;;17.42;100.00;98633.30;1721537;81;28081;-84
2022/06/05 05:47:06;;;;;;;36.00;24.67;;;;;;;17.32;100.00;98632.50;1722256;81;28008;-85
2022/06/05 05:49:32;;;;;;;36.35;25.12;;;;;;;17.38;100.00;98628.45;1722038;81;28069;-85
2022/06/05 05:52:01;;;;;;;36.17;25.05;;;;;;;17.50;100.00;98627.29;1718737;82;28080;-84
2022/06/05 05:54:33;;;;;;;35.85;23.75;;;;;;;17.47;100.00;98634.18;1703418;82;28055;-86
2022/06/05 05:56:59;;;;;;;35.95;22.77;;;;;;;17.62;100.00;98627.97;1719100;81;28099;-84
2022/06/05 05:59:27;;;;;;;37.17;23.55;;;;;;;17.78;100.00;98625.52;1717141;82;28015;-85
2022/06/05 06:01:54;;;;;;;39.25;22.30;;;;;;;17.92;100.00;98620.55;1722985;81;28178;-88
2022/06/05 06:04:20;;;;;;;36.58;23.05;;;;;;;18.01;100.00;98630.72;1721393;81;28088;-85
2022/06/05 06:06:52;;;;;;;36.03;21.97;;;;;;;18.05;100.00;98622.02;1719614;82;28142;-84
2022/06/05 06:09:17;;;;;;;34.10;21.65;;;;;;;17.96;100.00;98628.53;1722351;81;28076;-84
2022/06/05 06:11:44;;;;;;;31.70;21.52;;;;;;;17.91;100.00;98620.20;1718106;81;28183;-85
2022/06/05 06:14:10;;;;;;;35.00;22.20;;;;;;;17.89;100.00;98615.53;1718581;81;28080;-87
2022/06/05 06:16:37;;;;;;;36.00;21.95;;;;;;;17.92;100.00;98610.45;1718187;81;28142;-85
2022/06/05 06:19:05;;;;;;;35.75;22.65;;;;;;;17.88;100.00;98611.24;1721061;81;28027;-84
2022/06/05 06:21:33;;;;;;;33.95;23.22;;;;;;;18.03;100.00;98610.72;1715833;82;28095;-84
2022/06/05 06:23:59;;;;;;;31.52;22.77;;;;;;;18.08;100.00;98610.61;1727734;81;28088;-85
2022/06/05 06:26:25;;;;;;;34.80;23.62;;;;;;;18.02;100.00;98612.53;1726740;81;28079;-84
2022/06/05 06:28:51;;;;;;;38.42;25.62;;;;;;;18.04;100.00;98611.91;1723453;81;28169;-88
2022/06/05 06:31:24;;;;;;;36.15;26.87;;;;;;;18.02;100.00;98609.05;1729203;81;28091;-84
2022/06/05 06:33:50;;;;;;;38.38;25.43;;;;;;;18.05;100.00;98607.45;1728074;81;28099;-85
2022/06/05 06:36:18;;;;;;;38.25;27.90;;;;;;;18.07;100.00;98607.62;1726967;81;28153;-84
2022/06/05 06:38:46;;;;;;;37.70;25.20;;;;;;;18.11;100.00;98606.84;1726447;81;28165;-84
2022/06/05 06:41:15;;;;;;;37.88;25.10;;;;;;;18.34;100.00;98599.61;1728753;81;28466;-85
2022/06/05 06:43:43;;;;;;;35.95;26.80;;;;;;;18.55;100.00;98591.85;1727105;81;28079;-84
2022/06/05 06:46:10;;;;;;;36.48;23.95;;;;;;;18.70;100.00;98596.48;1680810;83;28179;-85
2022/06/05 06:48:36;;;;;;;36.88;24.85;;;;;;;18.75;100.00;98597.33;1688353;83;28206;-85
2022/06/05 06:51:04;;;;;;;34.10;24.60;;;;;;;18.80;100.00;98599.86;1684592;83;28221;-84
2022/06/05 06:53:32;;;;;;;37.83;26.62;;;;;;;18.93;100.00;98599.95;1680705;83;28176;-84
2022/06/05 06:56:10;;;;;;;38.80;25.82;;;;;;;19.03;100.00;98591.39;1684544;83;28073;-83
2022/06/05 06:58:37;;;;;;;32.60;23.92;;;;;;;19.08;100.00;98590.42;1678974;83;28196;-85
2022/06/05 07:01:03;;;;;;;35.33;26.55;;;;;;;19.20;100.00;98592.64;1679148;83;28070;-85
2022/06/05 07:03:30;;;;;;;39.18;26.87;;;;;;;19.31;100.00;98593.38;1681416;83;28224;-86
2022/06/05 07:05:57;;;;;;;37.65;27.35;;;;;;;19.33;100.00;98592.70;1682584;83;28225;-88
2022/06/05 07:08:23;;;;;;;32.17;23.30;;;;;;;19.41;100.00;98591.44;1684375;83;28091;-84
2022/06/05 07:10:55;;;;;;;35.00;24.92;;;;;;;19.47;100.00;98592.16;1688371;83;28082;-84
2022/06/05 07:13:23;;;;;;;37.42;26.10;;;;;;;19.44;100.00;98594.59;1687249;83;28075;-85
2022/06/05 07:15:49;;;;;;;34.25;26.10;;;;;;;19.54;100.00;98589.18;1658675;84;28184;-88
2022/06/05 07:18:23;;;;;;;32.73;25.02;;;;;;;19.72;100.00;98587.77;1687399;83;28116;-85
2022/06/05 07:20:57;;;;;;;32.85;25.20;;;;;;;19.82;100.00;98588.45;1680947;83;28140;-88
2022/06/05 07:23:24;;;;;;;31.90;24.23;;;;;;;19.86;100.00;98593.28;1683289;84;28072;-84
2022/06/05 07:25:52;;;;;;;35.43;25.35;;;;;;;19.89;100.00;98598.28;1640415;85;28081;-84
2022/06/05 07:28:20;;;;;;;31.07;24.70;;;;;;;19.96;100.00;98599.80;1660226;84;28146;-88
2022/06/05 07:31:09;;;;;;;31.20;23.30;;;;;;;20.07;100.00;98599.99;1651725;85;28125;-86
2022/06/05 07:33:36;;;;;;;30.00;22.20;;;;;;;20.07;100.00;98595.52;1719994;82;28189;-84
2022/06/05 07:36:05;;;;;;;28.17;21.85;;;;;;;20.14;100.00;98589.86;1719491;81;28091;-84
2022/06/05 07:38:35;;;;;;;27.98;21.82;;;;;;;20.13;100.00;98599.34;1722499;81;28102;-84
2022/06/05 07:41:05;;;;;;;28.83;22.80;;;;;;;20.08;100.00;98598.48;1722340;81;28123;-84
2022/06/05 07:43:43;;;;;;;29.00;23.07;;;;;;;20.11;100.00;98588.88;1720556;81;28092;-84
2022/06/05 07:46:10;;;;;;;30.52;22.40;;;;;;;20.25;100.00;98594.02;1719674;83;28068;-84
2022/06/05 07:48:36;;;;;;;24.77;19.62;;;;;;;20.37;100.00;98599.39;1719957;81;28098;-84
2022/06/05 07:56:39;;;;;;;25.72;20.80;;;;;;;20.29;100.00;98595.38;1715213;82;28084;-84
2022/06/05 07:59:05;;;;;;;18.17;15.53;;;;;;;20.35;100.00;98600.88;1721026;83;28027;-85
2022/06/05 08:01:31;;;;;;;26.85;20.95;;;;;;;20.33;100.00;98590.92;1719067;81;28143;-84
2022/06/05 08:04:00;;;;;;;22.70;17.92;;;;;;;20.28;100.00;98585.73;1714623;81;28102;-84
2022/06/05 08:06:34;;;;;;;26.87;21.42;;;;;;;20.35;100.00;98588.08;1718383;83;28060;-85
2022/06/05 08:09:05;;;;;;;27.77;20.85;;;;;;;20.36;100.00;98587.09;1717818;81;28111;-85
2022/06/05 08:11:34;;;;;;;21.57;16.85;;;;;;;20.35;100.00;98576.13;1719856;81;28131;-84
2022/06/05 08:14:02;;;;;;;18.62;15.70;;;;;;;20.47;100.00;98584.11;1714510;82;28135;-88
2022/06/05 08:16:28;;;;;;;18.80;16.75;;;;;;;20.56;100.00;98587.12;1717956;81;28095;-88
2022/06/05 08:18:55;;;;;;;23.30;18.82;;;;;;;20.59;100.00;98573.97;1718465;82;28157;-85
2022/06/05 08:21:23;;;;;;;19.27;15.90;;;;;;;20.63;100.00;98579.28;1718127;82;28122;-88
2022/06/05 08:24:04;;;;;;;19.92;14.95;;;;;;;20.75;100.00;98581.45;1707467;81;28068;-85
2022/06/05 08:26:32;;;;;;;17.37;14.00;;;;;;;20.84;100.00;98580.92;1692183;83;28208;-84
2022/06/05 08:29:04;;;;;;;17.87;15.05;;;;;;;20.89;100.00;98579.42;1697826;83;28168;-84
2022/06/05 08:31:32;;;;;;;17.50;14.80;;;;;;;20.98;100.00;98580.75;1708089;83;28147;-83
2022/06/05 08:33:58;;;;;;;19.65;16.57;;;;;;;21.09;100.00;98577.73;1701480;83;28163;-88
2022/06/05 08:36:25;;;;;;;18.17;16.07;;;;;;;21.12;100.00;98574.72;1700908;82;28102;-84
2022/06/05 08:42:02;;;;;;;13.65;12.10;;;;;;;21.22;100.00;98570.89;1699024;83;28121;-85
2022/06/05 08:44:40;;;;;;;11.75;10.55;;;;;;;21.31;100.00;98572.22;1669845;84;28105;-85
2022/06/05 08:47:24;;;;;;;11.90;10.63;;;;;;;21.34;100.00;98564.70;1674957;84;28053;-86
2022/06/05 08:50:00;;;;;;;17.27;13.43;;;;;;;21.39;100.00;98562.85;1685581;83;28162;-88
2022/06/05 08:52:36;;;;;;;15.05;13.48;;;;;;;21.49;100.00;98560.84;1693534;82;28083;-88
2022/06/05 08:55:41;;;;;;;13.30;11.55;;;;;;;21.55;100.00;98560.13;1702375;83;28028;-87
2022/06/05 08:58:17;;;;;;;16.52;13.60;;;;;;;21.60;100.00;98561.80;1694697;83;28177;-85
2022/06/05 09:00:50;;;;;;;11.45;10.30;;;;;;;21.71;100.00;98562.73;1690315;83;28091;-84
2022/06/05 09:03:33;;;;;;;11.68;10.43;;;;;;;21.79;100.00;98561.34;1698822;83;28195;-88
2022/06/05 09:06:06;;;;;;;12.37;10.63;;;;;;;21.84;100.00;98565.65;1693631;83;28096;-89
2022/06/05 09:08:36;;;;;;;12.82;11.05;;;;;;;21.89;100.00;98557.12;1704784;82;28109;-85
2022/06/05 09:11:14;;;;;;;11.80;10.60;;;;;;;21.91;100.00;98555.13;1703407;83;28053;-85
2022/06/05 09:13:57;;;;;;;10.70;9.60;;;;;;;22.01;100.00;98549.92;1696453;83;28086;-85
2022/06/05 09:16:27;;;;;;;9.35;8.38;;;;;;;22.07;100.00;98549.72;1696788;83;28082;-85
2022/06/05 09:18:54;;;;;;;8.55;7.53;;;;;;;22.15;100.00;98554.18;1705509;83;28112;-85
2022/06/05 09:21:36;;;;;;;6.78;6.08;;;;;;;22.21;100.00;98556.94;1701429;83;28027;-85
2022/06/05 09:24:29;;;;;;;6.33;5.72;;;;;;;22.29;100.00;98554.73;1709222;82;28087;-86
2022/06/05 09:27:00;;;;;;;7.05;5.75;;;;;;;22.45;100.00;98554.60;1717709;81;28057;-86
2022/06/05 09:29:32;;;;;;;5.72;5.22;;;;;;;22.52;100.00;98544.88;1722349;81;28112;-88
2022/06/05 09:32:08;;;;;;;6.08;5.50;;;;;;;22.57;100.00;98551.84;1720386;82;28125;-89
2022/06/05 09:34:40;;;;;;;5.85;5.25;;;;;;;22.61;100.00;98551.80;1720148;81;28064;-85
2022/06/05 09:37:29;;;;;;;6.37;5.75;;;;;;;22.60;100.00;98552.80;1720173;81;28119;-85
2022/06/05 09:39:59;;;;;;;6.53;4.80;;;;;;;22.53;100.00;98543.84;1721232;81;28152;-85
2022/06/05 09:42:45;;;;;;;5.95;4.60;;;;;;;22.68;100.00;98558.08;1718109;81;28098;-85
2022/06/05 09:45:36;;;;;;;5.00;4.50;;;;;;;22.72;100.00;98545.22;1717181;81;28092;-85
2022/06/05 09:48:30;;;;;;;4.45;4.05;;;;;;;22.85;100.00;98550.28;1719511;81;28076;-86
2022/06/05 09:50:56;;;;;;;7.37;4.33;;;;;;;22.90;100.00;98549.72;1721737;81;28084;-89
2022/06/05 09:53:29;;;;;;;4.58;4.17;;;;;;;22.89;100.00;98546.73;1716233;81;28047;-86
2022/06/05 09:56:21;;;;;;;4.97;4.55;;;;;;;22.92;100.00;98546.34;1720847;83;28098;-85
2022/06/05 09:59:00;;;;;;;5.42;3.80;;;;;;;23.00;100.00;98543.61;1725093;81;28127;-85
2022/06/05 10:01:30;;;;;;;4.70;4.22;;;;;;;23.11;100.00;98542.33;1718721;81;28092;-85
2022/06/05 10:03:58;;;;;;;4.50;4.10;;;;;;;23.22;100.00;98540.53;1719854;82;28076;-85
2022/06/05 10:06:31;;;;;;;4.45;3.80;;;;;;;23.29;100.00;98538.78;1718219;81;28187;-85
2022/06/05 10:09:04;;;;;;;3.60;3.30;;;;;;;23.27;100.00;98544.80;1719867;81;28088;-84
2022/06/05 10:11:57;;;;;;;3.52;3.22;;;;;;;23.32;100.00;98537.90;1718552;81;28169;-85
2022/06/05 10:14:45;;;;;;;3.22;2.87;;;;;;;23.33;100.00;98536.89;1718761;81;28001;-88
2022/06/05 10:17:33;;;;;;;4.25;2.98;;;;;;;23.34;100.00;98535.05;1719004;81;28083;-89
2022/06/05 10:20:06;;;;;;;3.40;2.90;;;;;;;23.34;100.00;98528.38;1719144;81;28091;-89
2022/06/05 10:22:43;;;;;;;2.80;2.60;;;;;;;23.34;100.00;98529.70;1719956;81;28063;-89
2022/06/05 10:25:38;;;;;;;4.00;2.60;;;;;;;23.33;100.00;98524.04;1720347;81;28080;-85
2022/06/05 10:28:11;;;;;;;4.55;3.22;;;;;;;23.30;100.00;98517.72;1717116;81;28009;-84
2022/06/05 10:31:14;;;;;;;3.67;3.10;;;;;;;23.29;99.24;98514.75;1722254;81;28124;-85
2022/06/05 10:34:07;;;;;;;4.42;3.00;;;;;;;23.26;97.54;98508.43;1718003;82;28084;-85
2022/06/05 10:37:06;;;;;;;3.25;2.90;;;;;;;23.26;95.70;98505.25;1721661;81;28181;-88
2022/06/05 10:39:58;;;;;;;3.75;3.40;;;;;;;23.32;94.37;98507.19;1716560;81;28088;-88
2022/06/05 10:42:42;;;;;;;3.55;2.98;;;;;;;23.41;93.58;98505.22;1715454;81;28167;-84
2022/06/05 10:45:22;;;;;;;3.00;2.80;;;;;;;23.41;92.23;98498.55;1715058;82;28096;-84
2022/06/05 10:47:55;;;;;;;3.85;3.30;;;;;;;23.45;91.28;98497.69;1715817;81;28076;-85
2022/06/05 10:50:28;;;;;;;3.70;3.40;;;;;;;23.44;90.40;98491.52;1709982;83;28060;-83
2022/06/05 10:53:09;;;;;;;3.80;3.40;;;;;;;23.48;89.64;98495.48;1715625;81;28492;-83
2022/06/05 10:55:45;;;;;;;4.00;3.30;;;;;;;23.53;89.28;98494.92;1706002;81;28044;-86
2022/06/05 10:58:21;;;;;;;4.50;2.92;;;;;;;23.59;88.73;98503.02;1721531;81;28084;-89
2022/06/05 11:01:02;;;;;;;3.37;2.72;;;;;;;23.66;88.08;98503.94;1692572;83;28082;-85
2022/06/05 11:03:56;;;;;;;3.42;3.08;;;;;;;23.71;86.93;98498.02;1700077;81;28073;-89
2022/06/05 11:06:58;;;;;;;3.40;3.10;;;;;;;23.75;85.67;98489.42;1720070;81;28056;-86
2022/06/05 11:09:45;;;;;;;2.75;2.55;;;;;;;23.82;84.86;98498.86;1716863;81;28080;-86
2022/06/05 11:15:24;;;;;;;3.58;3.25;;;;;;;23.88;81.51;98492.76;1720978;81;28155;-83
2022/06/05 11:18:18;;;;;;;4.08;3.20;;;;;;;23.90;80.61;98489.88;1720535;82;28068;-84
2022/06/05 11:20:53;;;;;;;4.40;3.08;;;;;;;23.97;80.26;98479.58;1718560;81;28158;-83
2022/06/05 11:23:23;;;;;;;2.87;2.52;;;;;;;24.07;80.04;98481.92;1718607;81;28068;-84
2022/06/05 11:25:59;;;;;;;4.70;3.08;;;;;;;24.05;78.16;98474.12;1707945;81;28063;-88
2022/06/05 11:28:58;;;;;;;2.80;2.60;;;;;;;24.02;76.29;98476.33;1699046;83;28249;-84
2022/06/05 11:31:56;;;;;;;3.62;2.50;;;;;;;23.97;74.40;98471.55;1698087;83;28095;-83
2022/06/05 11:34:41;;;;;;;3.52;3.17;;;;;;;24.07;73.83;98473.39;1701617;83;28097;-86
2022/06/05 11:37:34;;;;;;;4.37;2.85;;;;;;;24.13;72.84;98466.45;1703093;82;28117;-89
2022/06/05 11:40:04;;;;;;;3.00;2.80;;;;;;;24.13;71.90;98465.95;1653292;85;28138;-88
2022/06/05 11:42:35;;;;;;;3.20;2.90;;;;;;;24.19;70.86;98463.05;1665185;84;28112;-85
2022/06/05 11:45:16;;;;;;;3.83;2.58;;;;;;;24.17;69.88;98456.55;1662336;84;28106;-85
2022/06/05 11:48:07;;;;;;;3.20;2.90;;;;;;;24.16;68.82;98456.22;1696646;83;28028;-85
2022/06/05 11:51:01;;;;;;;4.67;3.10;;;;;;;24.19;67.91;98463.05;1680915;83;28125;-88
2022/06/05 11:53:54;;;;;;;4.65;2.95;;;;;;;24.18;67.18;98460.87;1695270;82;28177;-86
2022/06/05 11:56:26;;;;;;;3.35;2.95;;;;;;;24.26;66.62;98454.58;1656791;86;28123;-89
2022/06/05 11:59:32;;;;;;;3.67;2.98;;;;;;;24.27;65.87;98450.89;1699522;83;28193;-89
2022/06/05 12:02:10;;;;;;;3.90;2.95;;;;;;;24.29;65.00;98446.15;1750561;80;28093;-85